<?xml version="1.0" encoding="UTF-8" standalone="no" ?>
<gpx xmlns="http://www.topografix.com/GPX/1/1" xmlns:xsi="http://www.w3.org/2001/XMLSchema-instance" xsi:schemaLocation="http://www.topografix.com/GPX/1/1 http://www.topografix.com/GPX/1/1/gpx.xsd" version="1.1" creator="VisuGPX - https://www.visugpx.com">
  <metadata>
    <name>jour 3</name>
  </metadata>
  <trk>
    <name><![CDATA[Randonnée du 18/04/2018 à 17:56]]></name>
    <trkseg>
      <trkpt lat="47.97595" lon="6.98314">
        <ele>1144</ele>
        <time>2018-06-03T13:54:26+02:00</time>
      </trkpt>
      <trkpt lat="47.97713" lon="6.98327">
        <ele>1160</ele>
        <time>2018-06-03T13:54:31+02:00</time>
      </trkpt>
      <trkpt lat="47.97868" lon="6.9834">
        <ele>1171</ele>
        <time>2018-06-03T13:54:36+02:00</time>
      </trkpt>
      <trkpt lat="47.97917" lon="6.98409">
        <ele>1179</ele>
        <time>2018-06-03T13:54:41+02:00</time>
      </trkpt>
      <trkpt lat="47.97888" lon="6.98555">
        <ele>1192</ele>
        <time>2018-06-03T13:54:46+02:00</time>
      </trkpt>
      <trkpt lat="47.98003" lon="6.98477">
        <ele>1186</ele>
        <time>2018-06-03T13:54:51+02:00</time>
      </trkpt>
      <trkpt lat="47.98112" lon="6.98392">
        <ele>1197</ele>
        <time>2018-06-03T13:54:56+02:00</time>
      </trkpt>
      <trkpt lat="47.98265" lon="6.98362">
        <ele>1211</ele>
        <time>2018-06-03T13:55:01+02:00</time>
      </trkpt>
      <trkpt lat="47.98374" lon="6.9822">
        <ele>1215</ele>
        <time>2018-06-03T13:55:06+02:00</time>
      </trkpt>
      <trkpt lat="47.98448" lon="6.98177">
        <ele>1213</ele>
        <time>2018-06-03T13:55:11+02:00</time>
      </trkpt>
      <trkpt lat="47.9854" lon="6.98044">
        <ele>1221</ele>
        <time>2018-06-03T13:55:16+02:00</time>
      </trkpt>
      <trkpt lat="47.98684" lon="6.9801">
        <ele>1232</ele>
        <time>2018-06-03T13:55:21+02:00</time>
      </trkpt>
      <trkpt lat="47.98871" lon="6.98053">
        <ele>1241</ele>
        <time>2018-06-03T13:55:26+02:00</time>
      </trkpt>
      <trkpt lat="47.99129" lon="6.98108">
        <ele>1254</ele>
        <time>2018-06-03T13:55:31+02:00</time>
      </trkpt>
      <trkpt lat="47.9939" lon="6.98087">
        <ele>1285</ele>
        <time>2018-06-03T13:55:36+02:00</time>
      </trkpt>
      <trkpt lat="47.99511" lon="6.98113">
        <ele>1277</ele>
        <time>2018-06-03T13:55:41+02:00</time>
      </trkpt>
      <trkpt lat="47.99761" lon="6.98014">
        <ele>1282</ele>
        <time>2018-06-03T13:55:46+02:00</time>
      </trkpt>
      <trkpt lat="47.99945" lon="6.98044">
        <ele>1295</ele>
        <time>2018-06-03T13:55:51+02:00</time>
      </trkpt>
      <trkpt lat="48.00071" lon="6.981">
        <ele>1288</ele>
        <time>2018-06-03T13:55:56+02:00</time>
      </trkpt>
      <trkpt lat="48.00146" lon="6.98023">
        <ele>1275</ele>
        <time>2018-06-03T13:56:01+02:00</time>
      </trkpt>
      <trkpt lat="48.00269" lon="6.97997">
        <ele>1246</ele>
        <time>2018-06-03T13:56:06+02:00</time>
      </trkpt>
      <trkpt lat="48.00304" lon="6.9798">
        <ele>1239</ele>
        <time>2018-06-03T13:56:11+02:00</time>
      </trkpt>
      <trkpt lat="48.00539" lon="6.98014">
        <ele>1205</ele>
        <time>2018-06-03T13:56:16+02:00</time>
      </trkpt>
      <trkpt lat="48.00734" lon="6.98083">
        <ele>1246</ele>
        <time>2018-06-03T13:56:21+02:00</time>
      </trkpt>
      <trkpt lat="48.00861" lon="6.98186">
        <ele>1275</ele>
        <time>2018-06-03T13:56:26+02:00</time>
      </trkpt>
      <trkpt lat="48.00981" lon="6.98293">
        <ele>1292</ele>
        <time>2018-06-03T13:56:31+02:00</time>
      </trkpt>
      <trkpt lat="48.01044" lon="6.98271">
        <ele>1280</ele>
        <time>2018-06-03T13:56:36+02:00</time>
      </trkpt>
      <trkpt lat="48.01128" lon="6.98327">
        <ele>1245</ele>
        <time>2018-06-03T13:56:41+02:00</time>
      </trkpt>
      <trkpt lat="48.0126" lon="6.98456">
        <ele>1214</ele>
        <time>2018-06-03T13:56:46+02:00</time>
      </trkpt>
      <trkpt lat="48.01438" lon="6.98555">
        <ele>1193</ele>
        <time>2018-06-03T13:56:51+02:00</time>
      </trkpt>
      <trkpt lat="48.01532" lon="6.98568">
        <ele>1187</ele>
        <time>2018-06-03T13:56:56+02:00</time>
      </trkpt>
      <trkpt lat="48.01601" lon="6.98675">
        <ele>1197</ele>
        <time>2018-06-03T13:57:01+02:00</time>
      </trkpt>
      <trkpt lat="48.01748" lon="6.98868">
        <ele>1215</ele>
        <time>2018-06-03T13:57:06+02:00</time>
      </trkpt>
      <trkpt lat="48.0184" lon="6.9898">
        <ele>1239</ele>
        <time>2018-06-03T13:57:11+02:00</time>
      </trkpt>
      <trkpt lat="48.01877" lon="6.99121">
        <ele>1244</ele>
        <time>2018-06-03T13:57:16+02:00</time>
      </trkpt>
      <trkpt lat="48.019" lon="6.9925">
        <ele>1233</ele>
        <time>2018-06-03T13:57:21+02:00</time>
      </trkpt>
      <trkpt lat="48.0194" lon="6.99319">
        <ele>1244</ele>
        <time>2018-06-03T13:57:26+02:00</time>
      </trkpt>
      <trkpt lat="48.01923" lon="6.9946">
        <ele>1250</ele>
        <time>2018-06-03T13:57:31+02:00</time>
      </trkpt>
      <trkpt lat="48.01854" lon="6.99632">
        <ele>1249</ele>
        <time>2018-06-03T13:57:36+02:00</time>
      </trkpt>
      <trkpt lat="48.01805" lon="6.99701">
        <ele>1245</ele>
        <time>2018-06-03T13:57:41+02:00</time>
      </trkpt>
      <trkpt lat="48.01736" lon="6.99799">
        <ele>1236</ele>
        <time>2018-06-03T13:57:46+02:00</time>
      </trkpt>
      <trkpt lat="48.01722" lon="6.99919">
        <ele>1236</ele>
        <time>2018-06-03T13:57:51+02:00</time>
      </trkpt>
      <trkpt lat="48.01733" lon="7.00155">
        <ele>1224</ele>
        <time>2018-06-03T13:57:56+02:00</time>
      </trkpt>
      <trkpt lat="48.01756" lon="7.00211">
        <ele>1229</ele>
        <time>2018-06-03T13:58:01+02:00</time>
      </trkpt>
      <trkpt lat="48.01742" lon="7.00421">
        <ele>1215</ele>
        <time>2018-06-03T13:58:06+02:00</time>
      </trkpt>
      <trkpt lat="48.01676" lon="7.00572">
        <ele>1203</ele>
        <time>2018-06-03T13:58:11+02:00</time>
      </trkpt>
      <trkpt lat="48.0163" lon="7.00709">
        <ele>1193</ele>
        <time>2018-06-03T13:58:16+02:00</time>
      </trkpt>
      <trkpt lat="48.01621" lon="7.00962">
        <ele>1183</ele>
        <time>2018-06-03T13:58:21+02:00</time>
      </trkpt>
      <trkpt lat="48.01587" lon="7.01061">
        <ele>1173</ele>
        <time>2018-06-03T13:58:26+02:00</time>
      </trkpt>
      <trkpt lat="48.01524" lon="7.01177">
        <ele>1167</ele>
        <time>2018-06-03T13:58:31+02:00</time>
      </trkpt>
      <trkpt lat="48.01524" lon="7.01288">
        <ele>1164</ele>
        <time>2018-06-03T13:58:36+02:00</time>
      </trkpt>
      <trkpt lat="48.01466" lon="7.01198">
        <ele>1153</ele>
        <time>2018-06-03T13:58:41+02:00</time>
      </trkpt>
      <trkpt lat="48.01487" lon="7.01297">
        <ele>1155</ele>
        <time>2018-06-03T13:58:46+02:00</time>
      </trkpt>
      <trkpt lat="48.01535" lon="7.0137">
        <ele>1150</ele>
        <time>2018-06-03T13:58:51+02:00</time>
      </trkpt>
      <trkpt lat="48.01604" lon="7.01426">
        <ele>1150</ele>
        <time>2018-06-03T13:58:56+02:00</time>
      </trkpt>
      <trkpt lat="48.01705" lon="7.01606">
        <ele>1127</ele>
        <time>2018-06-03T13:59:01+02:00</time>
      </trkpt>
      <trkpt lat="48.01785" lon="7.01846">
        <ele>1072</ele>
        <time>2018-06-03T13:59:06+02:00</time>
      </trkpt>
      <trkpt lat="48.01742" lon="7.01851">
        <ele>1072</ele>
        <time>2018-06-03T13:59:11+02:00</time>
      </trkpt>
      <trkpt lat="48.0167" lon="7.01743">
        <ele>1073</ele>
        <time>2018-06-03T13:59:16+02:00</time>
      </trkpt>
      <trkpt lat="48.01633" lon="7.01696">
        <ele>1072</ele>
        <time>2018-06-03T13:59:21+02:00</time>
      </trkpt>
      <trkpt lat="48.01621" lon="7.01675">
        <ele>1074</ele>
        <time>2018-06-03T13:59:26+02:00</time>
      </trkpt>
      <trkpt lat="48.01535" lon="7.01593">
        <ele>1075</ele>
        <time>2018-06-03T13:59:31+02:00</time>
      </trkpt>
      <trkpt lat="48.01432" lon="7.01559">
        <ele>1075</ele>
        <time>2018-06-03T13:59:36+02:00</time>
      </trkpt>
      <trkpt lat="48.01354" lon="7.01597">
        <ele>1064</ele>
        <time>2018-06-03T13:59:41+02:00</time>
      </trkpt>
      <trkpt lat="48.01288" lon="7.01576">
        <ele>1064</ele>
        <time>2018-06-03T13:59:46+02:00</time>
      </trkpt>
      <trkpt lat="48.01225" lon="7.01516">
        <ele>1062</ele>
        <time>2018-06-03T13:59:51+02:00</time>
      </trkpt>
      <trkpt lat="48.01197" lon="7.01434">
        <ele>1057</ele>
        <time>2018-06-03T13:59:56+02:00</time>
      </trkpt>
      <trkpt lat="48.01271" lon="7.01173">
        <ele>1077</ele>
        <time>2018-06-03T14:00:01+02:00</time>
      </trkpt>
      <trkpt lat="48.01243" lon="7.01198">
        <ele>1070</ele>
        <time>2018-06-03T14:00:06+02:00</time>
      </trkpt>
      <trkpt lat="48.01265" lon="7.01147">
        <ele>1070</ele>
        <time>2018-06-03T14:00:11+02:00</time>
      </trkpt>
      <trkpt lat="48.01225" lon="7.01164">
        <ele>1054</ele>
        <time>2018-06-03T14:00:16+02:00</time>
      </trkpt>
      <trkpt lat="48.01268" lon="7.01082">
        <ele>1056</ele>
        <time>2018-06-03T14:00:21+02:00</time>
      </trkpt>
      <trkpt lat="48.01317" lon="7.00997">
        <ele>1054</ele>
        <time>2018-06-03T14:00:26+02:00</time>
      </trkpt>
      <trkpt lat="48.01375" lon="7.00864">
        <ele>1055</ele>
        <time>2018-06-03T14:00:31+02:00</time>
      </trkpt>
      <trkpt lat="48.013" lon="7.00795">
        <ele>999</ele>
        <time>2018-06-03T14:00:36+02:00</time>
      </trkpt>
      <trkpt lat="48.01286" lon="7.007">
        <ele>987</ele>
        <time>2018-06-03T14:00:41+02:00</time>
      </trkpt>
      <trkpt lat="48.01306" lon="7.0049">
        <ele>941</ele>
        <time>2018-06-03T14:00:46+02:00</time>
      </trkpt>
      <trkpt lat="48.01311" lon="7.00413">
        <ele>938</ele>
        <time>2018-06-03T14:00:51+02:00</time>
      </trkpt>
      <trkpt lat="48.01311" lon="7.0037">
        <ele>941</ele>
        <time>2018-06-03T14:00:56+02:00</time>
      </trkpt>
      <trkpt lat="48.01277" lon="7.00297">
        <ele>934</ele>
        <time>2018-06-03T14:01:01+02:00</time>
      </trkpt>
      <trkpt lat="48.01217" lon="7.00237">
        <ele>930</ele>
        <time>2018-06-03T14:01:06+02:00</time>
      </trkpt>
      <trkpt lat="48.01125" lon="7.00215">
        <ele>927</ele>
        <time>2018-06-03T14:01:11+02:00</time>
      </trkpt>
      <trkpt lat="48.01082" lon="7.00207">
        <ele>926</ele>
        <time>2018-06-03T14:01:16+02:00</time>
      </trkpt>
      <trkpt lat="48.01059" lon="7.00147">
        <ele>941</ele>
        <time>2018-06-03T14:01:21+02:00</time>
      </trkpt>
      <trkpt lat="48.01053" lon="7.001">
        <ele>948</ele>
        <time>2018-06-03T14:01:26+02:00</time>
      </trkpt>
      <trkpt lat="48.01013" lon="6.99885">
        <ele>933</ele>
        <time>2018-06-03T14:01:31+02:00</time>
      </trkpt>
      <trkpt lat="48.01059" lon="6.99816">
        <ele>942</ele>
        <time>2018-06-03T14:01:36+02:00</time>
      </trkpt>
      <trkpt lat="48.01087" lon="6.99778">
        <ele>940</ele>
        <time>2018-06-03T14:01:41+02:00</time>
      </trkpt>
      <trkpt lat="48.01019" lon="6.99894">
        <ele>937</ele>
        <time>2018-06-03T14:01:46+02:00</time>
      </trkpt>
      <trkpt lat="48.0107" lon="7.00203">
        <ele>927</ele>
        <time>2018-06-03T14:01:51+02:00</time>
      </trkpt>
      <trkpt lat="48.01228" lon="7.00237">
        <ele>933</ele>
        <time>2018-06-03T14:01:56+02:00</time>
      </trkpt>
      <trkpt lat="48.01317" lon="7.00366">
        <ele>945</ele>
        <time>2018-06-03T14:02:01+02:00</time>
      </trkpt>
      <trkpt lat="48.01288" lon="7.00726">
        <ele>990</ele>
        <time>2018-06-03T14:02:06+02:00</time>
      </trkpt>
      <trkpt lat="48.01306" lon="7.00803">
        <ele>1003</ele>
        <time>2018-06-03T14:02:11+02:00</time>
      </trkpt>
      <trkpt lat="48.01375" lon="7.00868">
        <ele>1056</ele>
        <time>2018-06-03T14:02:16+02:00</time>
      </trkpt>
      <trkpt lat="48.01228" lon="7.01168">
        <ele>1056</ele>
        <time>2018-06-03T14:02:21+02:00</time>
      </trkpt>
      <trkpt lat="48.01263" lon="7.01151">
        <ele>1069</ele>
        <time>2018-06-03T14:02:26+02:00</time>
      </trkpt>
      <trkpt lat="48.01237" lon="7.01185">
        <ele>1064</ele>
        <time>2018-06-03T14:02:31+02:00</time>
      </trkpt>
      <trkpt lat="48.01288" lon="7.01168">
        <ele>1083</ele>
        <time>2018-06-03T14:02:36+02:00</time>
      </trkpt>
      <trkpt lat="48.01202" lon="7.01443">
        <ele>1059</ele>
        <time>2018-06-03T14:02:41+02:00</time>
      </trkpt>
      <trkpt lat="48.01222" lon="7.0152">
        <ele>1060</ele>
        <time>2018-06-03T14:02:46+02:00</time>
      </trkpt>
      <trkpt lat="48.01343" lon="7.01602">
        <ele>1063</ele>
        <time>2018-06-03T14:02:51+02:00</time>
      </trkpt>
      <trkpt lat="48.01432" lon="7.01572">
        <ele>1072</ele>
        <time>2018-06-03T14:02:56+02:00</time>
      </trkpt>
      <trkpt lat="48.01535" lon="7.01597">
        <ele>1073</ele>
        <time>2018-06-03T14:03:01+02:00</time>
      </trkpt>
      <trkpt lat="48.01745" lon="7.01842">
        <ele>1074</ele>
        <time>2018-06-03T14:03:06+02:00</time>
      </trkpt>
      <trkpt lat="48.01779" lon="7.01924">
        <ele>1062</ele>
        <time>2018-06-03T14:03:11+02:00</time>
      </trkpt>
    </trkseg>
  </trk>
</gpx>